sensor_id;sensor_type;location;lat;lon;timestamp;P1;durP1;ratioP1;P2;durP2;ratioP2
32934;SDS011;19292;51.532;7.650;2023-06-10T00:00:39;3.67;;;3.38;;
32934;SDS011;19292;51.532;7.650;2023-06-10T00:03:06;3.17;;;2.88;;
32934;SDS011;19292;51.532;7.650;2023-06-10T00:05:33;4.40;;;4.00;;
32934;SDS011;19292;51.532;7.650;2023-06-10T00:07:59;3.90;;;3.30;;
32934;SDS011;19292;51.532;7.650;2023-06-10T00:10:26;3.42;;;3.13;;
32934;SDS011;19292;51.532;7.650;2023-06-10T00:12:52;5.32;;;3.22;;
32934;SDS011;19292;51.532;7.650;2023-06-10T00:15:17;3.67;;;3.38;;
32934;SDS011;19292;51.532;7.650;2023-06-10T00:17:43;3.63;;;3.33;;
32934;SDS011;19292;51.532;7.650;2023-06-10T00:20:09;3.92;;;3.50;;
32934;SDS011;19292;51.532;7.650;2023-06-10T00:22:38;4.10;;;3.70;;
32934;SDS011;19292;51.532;7.650;2023-06-10T00:25:05;3.60;;;3.28;;
32934;SDS011;19292;51.532;7.650;2023-06-10T00:27:31;2.92;;;2.60;;
32934;SDS011;19292;51.532;7.650;2023-06-10T00:30:03;4.28;;;3.05;;
32934;SDS011;19292;51.532;7.650;2023-06-10T00:32:31;2.63;;;2.40;;
32934;SDS011;19292;51.532;7.650;2023-06-10T00:34:56;3.80;;;3.00;;
32934;SDS011;19292;51.532;7.650;2023-06-10T00:37:22;3.60;;;3.08;;
32934;SDS011;19292;51.532;7.650;2023-06-10T00:39:47;4.03;;;2.75;;
32934;SDS011;19292;51.532;7.650;2023-06-10T00:42:13;2.42;;;2.22;;
32934;SDS011;19292;51.532;7.650;2023-06-10T00:44:38;3.97;;;3.58;;
32934;SDS011;19292;51.532;7.650;2023-06-10T00:47:03;3.38;;;3.00;;
32934;SDS011;19292;51.532;7.650;2023-06-10T00:49:29;2.72;;;2.45;;
32934;SDS011;19292;51.532;7.650;2023-06-10T00:51:55;2.55;;;2.35;;
32934;SDS011;19292;51.532;7.650;2023-06-10T00:54:20;4.70;;;3.30;;
32934;SDS011;19292;51.532;7.650;2023-06-10T00:56:46;3.95;;;2.72;;
32934;SDS011;19292;51.532;7.650;2023-06-10T00:59:12;6.18;;;3.97;;
32934;SDS011;19292;51.532;7.650;2023-06-10T01:01:39;5.45;;;3.72;;
32934;SDS011;19292;51.532;7.650;2023-06-10T01:04:04;3.42;;;2.92;;
32934;SDS011;19292;51.532;7.650;2023-06-10T01:06:38;3.00;;;2.70;;
32934;SDS011;19292;51.532;7.650;2023-06-10T01:09:23;3.42;;;2.53;;
32934;SDS011;19292;51.532;7.650;2023-06-10T01:11:56;3.70;;;3.03;;
32934;SDS011;19292;51.532;7.650;2023-06-10T01:14:25;2.80;;;2.30;;
32934;SDS011;19292;51.532;7.650;2023-06-10T01:16:50;3.75;;;3.13;;
32934;SDS011;19292;51.532;7.650;2023-06-10T01:19:17;3.83;;;2.90;;
32934;SDS011;19292;51.532;7.650;2023-06-10T01:21:43;3.60;;;3.25;;
32934;SDS011;19292;51.532;7.650;2023-06-10T01:24:09;4.60;;;3.10;;
32934;SDS011;19292;51.532;7.650;2023-06-10T01:26:36;4.10;;;3.03;;
32934;SDS011;19292;51.532;7.650;2023-06-10T01:29:07;4.18;;;3.72;;
32934;SDS011;19292;51.532;7.650;2023-06-10T01:31:48;3.72;;;2.90;;
32934;SDS011;19292;51.532;7.650;2023-06-10T01:34:17;3.03;;;2.70;;
32934;SDS011;19292;51.532;7.650;2023-06-10T01:36:47;4.45;;;3.35;;
32934;SDS011;19292;51.532;7.650;2023-06-10T01:39:14;6.35;;;3.35;;
32934;SDS011;19292;51.532;7.650;2023-06-10T01:41:41;3.40;;;2.90;;
32934;SDS011;19292;51.532;7.650;2023-06-10T01:44:07;4.65;;;3.00;;
32934;SDS011;19292;51.532;7.650;2023-06-10T01:46:32;4.22;;;3.33;;
32934;SDS011;19292;51.532;7.650;2023-06-10T01:48:57;4.82;;;3.67;;
32934;SDS011;19292;51.532;7.650;2023-06-10T01:51:23;4.78;;;3.38;;
32934;SDS011;19292;51.532;7.650;2023-06-10T01:53:48;5.88;;;2.85;;
32934;SDS011;19292;51.532;7.650;2023-06-10T01:56:13;5.22;;;4.15;;
32934;SDS011;19292;51.532;7.650;2023-06-10T01:58:42;4.15;;;3.28;;
32934;SDS011;19292;51.532;7.650;2023-06-10T02:01:08;6.13;;;3.55;;
32934;SDS011;19292;51.532;7.650;2023-06-10T02:03:34;5.25;;;3.25;;
32934;SDS011;19292;51.532;7.650;2023-06-10T02:05:59;3.92;;;2.92;;
32934;SDS011;19292;51.532;7.650;2023-06-10T02:08:25;3.33;;;2.72;;
32934;SDS011;19292;51.532;7.650;2023-06-10T02:10:52;4.35;;;3.50;;
32934;SDS011;19292;51.532;7.650;2023-06-10T02:13:18;3.60;;;3.30;;
32934;SDS011;19292;51.532;7.650;2023-06-10T02:15:43;4.40;;;3.85;;
32934;SDS011;19292;51.532;7.650;2023-06-10T02:18:08;5.88;;;3.10;;
32934;SDS011;19292;51.532;7.650;2023-06-10T02:20:35;5.07;;;3.58;;
32934;SDS011;19292;51.532;7.650;2023-06-10T02:23:00;4.72;;;3.60;;
32934;SDS011;19292;51.532;7.650;2023-06-10T02:25:26;4.93;;;3.35;;
32934;SDS011;19292;51.532;7.650;2023-06-10T02:27:51;3.97;;;3.28;;
32934;SDS011;19292;51.532;7.650;2023-06-10T02:30:16;5.63;;;3.95;;
32934;SDS011;19292;51.532;7.650;2023-06-10T02:32:42;4.65;;;4.15;;
32934;SDS011;19292;51.532;7.650;2023-06-10T02:35:07;4.05;;;3.28;;
32934;SDS011;19292;51.532;7.650;2023-06-10T02:37:33;5.00;;;3.33;;
32934;SDS011;19292;51.532;7.650;2023-06-10T02:39:58;4.68;;;4.00;;
32934;SDS011;19292;51.532;7.650;2023-06-10T02:42:24;7.40;;;3.83;;
32934;SDS011;19292;51.532;7.650;2023-06-10T02:44:49;5.93;;;4.70;;
32934;SDS011;19292;51.532;7.650;2023-06-10T02:47:14;6.20;;;4.32;;
32934;SDS011;19292;51.532;7.650;2023-06-10T02:49:40;4.97;;;3.67;;
32934;SDS011;19292;51.532;7.650;2023-06-10T02:52:05;5.63;;;3.35;;
32934;SDS011;19292;51.532;7.650;2023-06-10T02:54:32;4.30;;;3.70;;
32934;SDS011;19292;51.532;7.650;2023-06-10T02:56:57;7.03;;;4.22;;
32934;SDS011;19292;51.532;7.650;2023-06-10T02:59:22;5.32;;;3.50;;
32934;SDS011;19292;51.532;7.650;2023-06-10T03:01:48;7.43;;;4.13;;
32934;SDS011;19292;51.532;7.650;2023-06-10T03:04:13;4.55;;;4.10;;
32934;SDS011;19292;51.532;7.650;2023-06-10T03:06:39;5.60;;;4.60;;
32934;SDS011;19292;51.532;7.650;2023-06-10T03:09:06;6.85;;;4.65;;
32934;SDS011;19292;51.532;7.650;2023-06-10T03:11:34;4.45;;;3.38;;
32934;SDS011;19292;51.532;7.650;2023-06-10T03:14:00;3.45;;;3.10;;
32934;SDS011;19292;51.532;7.650;2023-06-10T03:16:25;4.95;;;3.47;;
32934;SDS011;19292;51.532;7.650;2023-06-10T03:18:52;5.78;;;4.88;;
32934;SDS011;19292;51.532;7.650;2023-06-10T03:21:17;5.22;;;3.97;;
32934;SDS011;19292;51.532;7.650;2023-06-10T03:23:43;5.53;;;3.97;;
32934;SDS011;19292;51.532;7.650;2023-06-10T03:26:08;6.88;;;3.92;;
32934;SDS011;19292;51.532;7.650;2023-06-10T03:28:35;3.70;;;3.08;;
32934;SDS011;19292;51.532;7.650;2023-06-10T03:31:00;4.18;;;3.30;;
32934;SDS011;19292;51.532;7.650;2023-06-10T03:33:25;5.20;;;4.63;;
32934;SDS011;19292;51.532;7.650;2023-06-10T03:35:51;5.82;;;4.63;;
32934;SDS011;19292;51.532;7.650;2023-06-10T03:38:17;5.40;;;4.43;;
32934;SDS011;19292;51.532;7.650;2023-06-10T03:40:42;6.10;;;4.78;;
32934;SDS011;19292;51.532;7.650;2023-06-10T03:43:07;6.78;;;4.80;;
32934;SDS011;19292;51.532;7.650;2023-06-10T03:45:33;6.50;;;5.45;;
32934;SDS011;19292;51.532;7.650;2023-06-10T03:47:58;7.70;;;4.32;;
32934;SDS011;19292;51.532;7.650;2023-06-10T03:50:25;5.40;;;4.70;;
32934;SDS011;19292;51.532;7.650;2023-06-10T03:52:51;7.03;;;5.80;;
32934;SDS011;19292;51.532;7.650;2023-06-10T03:55:16;5.78;;;4.38;;
32934;SDS011;19292;51.532;7.650;2023-06-10T03:57:42;6.65;;;5.30;;
32934;SDS011;19292;51.532;7.650;2023-06-10T04:00:08;5.88;;;5.25;;
32934;SDS011;19292;51.532;7.650;2023-06-10T04:02:37;6.07;;;4.75;;
32934;SDS011;19292;51.532;7.650;2023-06-10T04:05:10;6.53;;;4.75;;
32934;SDS011;19292;51.532;7.650;2023-06-10T04:07:36;7.10;;;5.47;;
32934;SDS011;19292;51.532;7.650;2023-06-10T04:10:01;5.90;;;4.88;;
32934;SDS011;19292;51.532;7.650;2023-06-10T04:12:28;6.30;;;5.20;;
32934;SDS011;19292;51.532;7.650;2023-06-10T04:14:53;6.00;;;4.68;;
32934;SDS011;19292;51.532;7.650;2023-06-10T04:17:18;4.28;;;3.83;;
32934;SDS011;19292;51.532;7.650;2023-06-10T04:19:44;6.20;;;5.25;;
32934;SDS011;19292;51.532;7.650;2023-06-10T04:22:09;6.03;;;4.28;;
32934;SDS011;19292;51.532;7.650;2023-06-10T04:24:34;4.63;;;4.15;;
32934;SDS011;19292;51.532;7.650;2023-06-10T04:27:00;5.25;;;4.65;;
32934;SDS011;19292;51.532;7.650;2023-06-10T04:29:26;5.80;;;4.57;;
32934;SDS011;19292;51.532;7.650;2023-06-10T04:31:51;7.35;;;4.57;;
32934;SDS011;19292;51.532;7.650;2023-06-10T04:34:16;4.97;;;3.78;;
32934;SDS011;19292;51.532;7.650;2023-06-10T04:36:42;5.45;;;4.50;;
32934;SDS011;19292;51.532;7.650;2023-06-10T04:39:07;6.47;;;4.47;;
32934;SDS011;19292;51.532;7.650;2023-06-10T04:41:32;6.43;;;4.13;;
32934;SDS011;19292;51.532;7.650;2023-06-10T04:43:58;5.85;;;4.97;;
32934;SDS011;19292;51.532;7.650;2023-06-10T04:46:23;4.75;;;4.25;;
32934;SDS011;19292;51.532;7.650;2023-06-10T04:48:49;4.72;;;3.88;;
32934;SDS011;19292;51.532;7.650;2023-06-10T04:51:15;5.72;;;4.78;;
32934;SDS011;19292;51.532;7.650;2023-06-10T04:53:40;5.70;;;4.25;;
32934;SDS011;19292;51.532;7.650;2023-06-10T04:56:06;6.85;;;5.53;;
32934;SDS011;19292;51.532;7.650;2023-06-10T04:58:32;4.32;;;3.92;;
32934;SDS011;19292;51.532;7.650;2023-06-10T05:00:58;5.95;;;4.57;;
32934;SDS011;19292;51.532;7.650;2023-06-10T05:03:23;4.13;;;3.72;;
32934;SDS011;19292;51.532;7.650;2023-06-10T05:05:48;5.65;;;3.95;;
32934;SDS011;19292;51.532;7.650;2023-06-10T05:08:14;6.40;;;3.88;;
32934;SDS011;19292;51.532;7.650;2023-06-10T05:10:39;6.97;;;5.20;;
32934;SDS011;19292;51.532;7.650;2023-06-10T05:13:04;5.40;;;4.18;;
32934;SDS011;19292;51.532;7.650;2023-06-10T05:15:30;4.60;;;3.63;;
32934;SDS011;19292;51.532;7.650;2023-06-10T05:17:58;4.40;;;4.00;;
32934;SDS011;19292;51.532;7.650;2023-06-10T05:20:24;4.18;;;3.58;;
32934;SDS011;19292;51.532;7.650;2023-06-10T05:22:50;4.43;;;3.38;;
32934;SDS011;19292;51.532;7.650;2023-06-10T05:25:15;4.60;;;3.08;;
32934;SDS011;19292;51.532;7.650;2023-06-10T05:27:41;6.03;;;3.25;;
32934;SDS011;19292;51.532;7.650;2023-06-10T05:30:08;5.03;;;4.32;;
32934;SDS011;19292;51.532;7.650;2023-06-10T05:32:35;4.60;;;3.47;;
32934;SDS011;19292;51.532;7.650;2023-06-10T05:35:00;8.00;;;4.25;;
32934;SDS011;19292;51.532;7.650;2023-06-10T05:37:26;5.85;;;3.85;;
32934;SDS011;19292;51.532;7.650;2023-06-10T05:39:51;4.20;;;3.38;;
32934;SDS011;19292;51.532;7.650;2023-06-10T05:42:17;5.43;;;4.35;;
32934;SDS011;19292;51.532;7.650;2023-06-10T05:44:42;5.60;;;4.07;;
32934;SDS011;19292;51.532;7.650;2023-06-10T05:47:08;4.28;;;3.47;;
32934;SDS011;19292;51.532;7.650;2023-06-10T05:49:33;5.95;;;4.13;;
32934;SDS011;19292;51.532;7.650;2023-06-10T05:51:59;3.70;;;3.33;;
32934;SDS011;19292;51.532;7.650;2023-06-10T05:54:25;3.85;;;3.47;;
32934;SDS011;19292;51.532;7.650;2023-06-10T05:56:50;5.13;;;3.70;;
32934;SDS011;19292;51.532;7.650;2023-06-10T05:59:16;3.40;;;3.10;;
32934;SDS011;19292;51.532;7.650;2023-06-10T06:01:41;2.75;;;2.55;;
32934;SDS011;19292;51.532;7.650;2023-06-10T06:04:07;4.30;;;3.47;;
32934;SDS011;19292;51.532;7.650;2023-06-10T06:06:33;3.38;;;2.90;;
32934;SDS011;19292;51.532;7.650;2023-06-10T06:08:58;5.40;;;3.35;;
32934;SDS011;19292;51.532;7.650;2023-06-10T06:11:24;4.72;;;3.50;;
32934;SDS011;19292;51.532;7.650;2023-06-10T06:13:50;4.15;;;3.35;;
32934;SDS011;19292;51.532;7.650;2023-06-10T06:16:16;5.47;;;3.63;;
32934;SDS011;19292;51.532;7.650;2023-06-10T06:18:43;4.40;;;3.20;;
32934;SDS011;19292;51.532;7.650;2023-06-10T06:21:08;6.93;;;3.40;;
32934;SDS011;19292;51.532;7.650;2023-06-10T06:23:34;2.88;;;2.60;;
32934;SDS011;19292;51.532;7.650;2023-06-10T06:25:59;5.45;;;4.85;;
32934;SDS011;19292;51.532;7.650;2023-06-10T06:28:24;2.80;;;2.60;;
32934;SDS011;19292;51.532;7.650;2023-06-10T06:30:54;4.97;;;3.15;;
32934;SDS011;19292;51.532;7.650;2023-06-10T06:33:20;3.72;;;3.35;;
32934;SDS011;19292;51.532;7.650;2023-06-10T06:35:45;3.90;;;3.00;;
32934;SDS011;19292;51.532;7.650;2023-06-10T06:38:11;3.95;;;3.22;;
32934;SDS011;19292;51.532;7.650;2023-06-10T06:40:36;3.92;;;3.20;;
32934;SDS011;19292;51.532;7.650;2023-06-10T06:43:01;2.42;;;2.20;;
32934;SDS011;19292;51.532;7.650;2023-06-10T06:45:27;3.30;;;2.38;;
32934;SDS011;19292;51.532;7.650;2023-06-10T06:47:52;4.22;;;3.35;;
32934;SDS011;19292;51.532;7.650;2023-06-10T06:50:18;4.50;;;2.40;;
32934;SDS011;19292;51.532;7.650;2023-06-10T06:52:43;2.47;;;2.25;;
32934;SDS011;19292;51.532;7.650;2023-06-10T06:55:08;2.83;;;2.22;;
32934;SDS011;19292;51.532;7.650;2023-06-10T06:57:34;3.70;;;2.60;;
32934;SDS011;19292;51.532;7.650;2023-06-10T06:59:59;3.10;;;2.22;;
32934;SDS011;19292;51.532;7.650;2023-06-10T07:02:25;2.10;;;1.90;;
32934;SDS011;19292;51.532;7.650;2023-06-10T07:04:50;2.75;;;2.10;;
32934;SDS011;19292;51.532;7.650;2023-06-10T07:07:15;2.38;;;2.17;;
32934;SDS011;19292;51.532;7.650;2023-06-10T07:09:41;3.42;;;2.72;;
32934;SDS011;19292;51.532;7.650;2023-06-10T07:12:06;2.50;;;2.10;;
32934;SDS011;19292;51.532;7.650;2023-06-10T07:14:32;2.42;;;2.20;;
32934;SDS011;19292;51.532;7.650;2023-06-10T07:16:57;2.72;;;2.38;;
32934;SDS011;19292;51.532;7.650;2023-06-10T07:19:23;5.80;;;2.97;;
32934;SDS011;19292;51.532;7.650;2023-06-10T07:21:48;2.75;;;2.13;;
32934;SDS011;19292;51.532;7.650;2023-06-10T07:24:14;2.33;;;2.13;;
32934;SDS011;19292;51.532;7.650;2023-06-10T07:26:39;3.00;;;2.70;;
32934;SDS011;19292;51.532;7.650;2023-06-10T07:29:05;2.53;;;2.33;;
32934;SDS011;19292;51.532;7.650;2023-06-10T07:31:30;2.40;;;1.70;;
32934;SDS011;19292;51.532;7.650;2023-06-10T07:33:55;5.22;;;2.00;;
32934;SDS011;19292;51.532;7.650;2023-06-10T07:36:21;3.78;;;3.40;;
32934;SDS011;19292;51.532;7.650;2023-06-10T07:38:46;2.55;;;2.10;;
32934;SDS011;19292;51.532;7.650;2023-06-10T07:41:11;3.03;;;1.98;;
32934;SDS011;19292;51.532;7.650;2023-06-10T07:43:37;3.13;;;2.55;;
32934;SDS011;19292;51.532;7.650;2023-06-10T07:46:03;2.20;;;1.70;;
32934;SDS011;19292;51.532;7.650;2023-06-10T07:48:30;2.20;;;1.83;;
32934;SDS011;19292;51.532;7.650;2023-06-10T07:50:55;2.38;;;2.15;;
32934;SDS011;19292;51.532;7.650;2023-06-10T07:53:21;2.80;;;2.30;;
32934;SDS011;19292;51.532;7.650;2023-06-10T07:55:46;1.30;;;1.17;;
32934;SDS011;19292;51.532;7.650;2023-06-10T07:58:11;3.92;;;2.33;;
32934;SDS011;19292;51.532;7.650;2023-06-10T08:00:37;4.10;;;1.95;;
32934;SDS011;19292;51.532;7.650;2023-06-10T08:03:02;1.98;;;1.50;;
32934;SDS011;19292;51.532;7.650;2023-06-10T08:05:27;1.73;;;1.55;;
32934;SDS011;19292;51.532;7.650;2023-06-10T08:07:54;2.55;;;1.95;;
32934;SDS011;19292;51.532;7.650;2023-06-10T08:10:20;2.67;;;1.90;;
32934;SDS011;19292;51.532;7.650;2023-06-10T08:12:45;1.73;;;1.60;;
32934;SDS011;19292;51.532;7.650;2023-06-10T08:15:10;1.75;;;1.42;;
32934;SDS011;19292;51.532;7.650;2023-06-10T08:17:36;3.47;;;2.42;;
32934;SDS011;19292;51.532;7.650;2023-06-10T08:20:02;3.33;;;2.03;;
32934;SDS011;19292;51.532;7.650;2023-06-10T08:22:28;1.73;;;1.42;;
32934;SDS011;19292;51.532;7.650;2023-06-10T08:24:54;3.90;;;1.90;;
32934;SDS011;19292;51.532;7.650;2023-06-10T08:27:21;3.47;;;2.17;;
32934;SDS011;19292;51.532;7.650;2023-06-10T08:29:46;3.30;;;2.00;;
32934;SDS011;19292;51.532;7.650;2023-06-10T08:32:11;3.38;;;1.98;;
32934;SDS011;19292;51.532;7.650;2023-06-10T08:34:37;1.98;;;1.75;;
32934;SDS011;19292;51.532;7.650;2023-06-10T08:37:02;3.78;;;2.88;;
32934;SDS011;19292;51.532;7.650;2023-06-10T08:39:28;4.93;;;2.70;;
32934;SDS011;19292;51.532;7.650;2023-06-10T08:44:46;2.85;;;1.75;;
32934;SDS011;19292;51.532;7.650;2023-06-10T08:47:16;2.47;;;1.77;;
32934;SDS011;19292;51.532;7.650;2023-06-10T08:49:45;1.73;;;1.63;;
32934;SDS011;19292;51.532;7.650;2023-06-10T08:52:19;1.60;;;1.20;;
32934;SDS011;19292;51.532;7.650;2023-06-10T08:54:59;2.42;;;2.10;;
32934;SDS011;19292;51.532;7.650;2023-06-10T08:57:25;2.05;;;1.38;;
32934;SDS011;19292;51.532;7.650;2023-06-10T08:59:52;2.53;;;1.75;;
32934;SDS011;19292;51.532;7.650;2023-06-10T09:02:19;1.88;;;1.65;;
32934;SDS011;19292;51.532;7.650;2023-06-10T09:04:46;1.40;;;1.30;;
32934;SDS011;19292;51.532;7.650;2023-06-10T09:07:13;1.90;;;1.80;;
32934;SDS011;19292;51.532;7.650;2023-06-10T09:09:39;2.88;;;1.70;;
32934;SDS011;19292;51.532;7.650;2023-06-10T09:12:05;2.95;;;2.20;;
32934;SDS011;19292;51.532;7.650;2023-06-10T09:14:31;1.92;;;1.60;;
32934;SDS011;19292;51.532;7.650;2023-06-10T09:16:57;2.28;;;1.70;;
32934;SDS011;19292;51.532;7.650;2023-06-10T09:19:25;1.77;;;1.50;;
32934;SDS011;19292;51.532;7.650;2023-06-10T09:21:52;2.33;;;1.80;;
32934;SDS011;19292;51.532;7.650;2023-06-10T09:24:17;2.47;;;2.03;;
32934;SDS011;19292;51.532;7.650;2023-06-10T09:26:43;4.13;;;3.03;;
32934;SDS011;19292;51.532;7.650;2023-06-10T09:29:10;2.25;;;2.00;;
32934;SDS011;19292;51.532;7.650;2023-06-10T09:31:37;2.42;;;1.77;;
32934;SDS011;19292;51.532;7.650;2023-06-10T09:36:39;1.20;;;1.10;;
32934;SDS011;19292;51.532;7.650;2023-06-10T09:39:05;4.30;;;2.42;;
32934;SDS011;19292;51.532;7.650;2023-06-10T09:41:40;2.03;;;1.58;;
32934;SDS011;19292;51.532;7.650;2023-06-10T09:44:13;2.08;;;1.90;;
32934;SDS011;19292;51.532;7.650;2023-06-10T09:46:42;2.47;;;2.17;;
32934;SDS011;19292;51.532;7.650;2023-06-10T09:49:10;2.13;;;1.92;;
32934;SDS011;19292;51.532;7.650;2023-06-10T09:51:35;3.25;;;2.10;;
32934;SDS011;19292;51.532;7.650;2023-06-10T09:54:04;2.83;;;1.67;;
32934;SDS011;19292;51.532;7.650;2023-06-10T09:56:33;3.38;;;2.13;;
32934;SDS011;19292;51.532;7.650;2023-06-10T09:59:02;2.45;;;1.77;;
32934;SDS011;19292;51.532;7.650;2023-06-10T10:01:30;1.98;;;1.50;;
32934;SDS011;19292;51.532;7.650;2023-06-10T10:03:55;2.97;;;1.65;;
32934;SDS011;19292;51.532;7.650;2023-06-10T10:06:21;2.63;;;2.42;;
32934;SDS011;19292;51.532;7.650;2023-06-10T10:08:48;3.63;;;2.17;;
32934;SDS011;19292;51.532;7.650;2023-06-10T10:11:16;2.40;;;2.03;;
32934;SDS011;19292;51.532;7.650;2023-06-10T10:13:42;2.45;;;2.17;;
32934;SDS011;19292;51.532;7.650;2023-06-10T10:16:15;3.28;;;2.35;;
32934;SDS011;19292;51.532;7.650;2023-06-10T10:18:55;3.33;;;3.03;;
32934;SDS011;19292;51.532;7.650;2023-06-10T10:21:23;2.72;;;1.95;;
32934;SDS011;19292;51.532;7.650;2023-06-10T10:26:24;2.60;;;2.40;;
32934;SDS011;19292;51.532;7.650;2023-06-10T10:29:37;2.63;;;2.20;;
32934;SDS011;19292;51.532;7.650;2023-06-10T10:31:40;4.15;;;3.10;;
32934;SDS011;19292;51.532;7.650;2023-06-10T10:34:07;2.83;;;2.33;;
32934;SDS011;19292;51.532;7.650;2023-06-10T10:36:34;2.63;;;2.15;;
32934;SDS011;19292;51.532;7.650;2023-06-10T10:39:01;2.33;;;2.10;;
32934;SDS011;19292;51.532;7.650;2023-06-10T10:41:28;2.25;;;1.60;;
32934;SDS011;19292;51.532;7.650;2023-06-10T10:43:55;3.33;;;2.00;;
32934;SDS011;19292;51.532;7.650;2023-06-10T10:46:21;2.35;;;2.05;;
32934;SDS011;19292;51.532;7.650;2023-06-10T10:48:49;2.22;;;1.80;;
32934;SDS011;19292;51.532;7.650;2023-06-10T10:51:17;3.20;;;2.28;;
32934;SDS011;19292;51.532;7.650;2023-06-10T10:53:42;2.72;;;2.00;;
32934;SDS011;19292;51.532;7.650;2023-06-10T10:56:13;2.60;;;2.17;;
32934;SDS011;19292;51.532;7.650;2023-06-10T10:58:40;1.92;;;1.77;;
32934;SDS011;19292;51.532;7.650;2023-06-10T11:01:12;2.95;;;1.90;;
32934;SDS011;19292;51.532;7.650;2023-06-10T11:03:43;3.22;;;2.50;;
32934;SDS011;19292;51.532;7.650;2023-06-10T11:06:13;2.92;;;2.47;;
32934;SDS011;19292;51.532;7.650;2023-06-10T11:11:17;3.10;;;2.05;;
32934;SDS011;19292;51.532;7.650;2023-06-10T11:13:57;3.97;;;2.53;;
32934;SDS011;19292;51.532;7.650;2023-06-10T11:16:42;4.05;;;3.75;;
32934;SDS011;19292;51.532;7.650;2023-06-10T11:19:08;4.18;;;3.88;;
32934;SDS011;19292;51.532;7.650;2023-06-10T11:21:44;3.97;;;3.65;;
32934;SDS011;19292;51.532;7.650;2023-06-10T11:24:22;4.13;;;3.80;;
32934;SDS011;19292;51.532;7.650;2023-06-10T11:26:47;3.33;;;3.03;;
32934;SDS011;19292;51.532;7.650;2023-06-10T11:29:14;3.92;;;3.63;;
32934;SDS011;19292;51.532;7.650;2023-06-10T11:34:20;3.33;;;3.03;;
32934;SDS011;19292;51.532;7.650;2023-06-10T11:36:48;4.07;;;3.75;;
32934;SDS011;19292;51.532;7.650;2023-06-10T11:39:14;3.83;;;3.53;;
32934;SDS011;19292;51.532;7.650;2023-06-10T11:41:39;4.80;;;4.43;;
32934;SDS011;19292;51.532;7.650;2023-06-10T11:44:10;10.23;;;9.73;;
32934;SDS011;19292;51.532;7.650;2023-06-10T11:46:37;30.13;;;28.73;;
32934;SDS011;19292;51.532;7.650;2023-06-10T11:49:04;6.68;;;6.13;;
32934;SDS011;19292;51.532;7.650;2023-06-10T11:51:33;10.25;;;9.65;;
32934;SDS011;19292;51.532;7.650;2023-06-10T11:54:02;10.07;;;9.48;;
32934;SDS011;19292;51.532;7.650;2023-06-10T11:56:29;5.57;;;4.93;;
32934;SDS011;19292;51.532;7.650;2023-06-10T11:59:05;4.25;;;3.85;;
32934;SDS011;19292;51.532;7.650;2023-06-10T12:01:33;33.38;;;31.88;;
32934;SDS011;19292;51.532;7.650;2023-06-10T12:04:09;5.43;;;5.13;;
32934;SDS011;19292;51.532;7.650;2023-06-10T12:09:22;32.13;;;30.55;;
32934;SDS011;19292;51.532;7.650;2023-06-10T12:11:55;15.63;;;14.80;;
32934;SDS011;19292;51.532;7.650;2023-06-10T12:17:37;23.48;;;22.33;;
32934;SDS011;19292;51.532;7.650;2023-06-10T12:20:04;10.95;;;10.25;;
32934;SDS011;19292;51.532;7.650;2023-06-10T12:22:39;32.90;;;31.38;;
32934;SDS011;19292;51.532;7.650;2023-06-10T12:25:06;33.10;;;31.40;;
32934;SDS011;19292;51.532;7.650;2023-06-10T12:27:32;40.47;;;38.50;;
32934;SDS011;19292;51.532;7.650;2023-06-10T12:29:59;42.83;;;40.83;;
32934;SDS011;19292;51.532;7.650;2023-06-10T12:32:40;104.90;;;99.65;;
32934;SDS011;19292;51.532;7.650;2023-06-10T12:35:06;110.53;;;105.32;;
32934;SDS011;19292;51.532;7.650;2023-06-10T12:37:32;87.05;;;82.63;;
32934;SDS011;19292;51.532;7.650;2023-06-10T12:40:02;102.20;;;97.37;;
32934;SDS011;19292;51.532;7.650;2023-06-10T12:42:28;88.88;;;84.50;;
32934;SDS011;19292;51.532;7.650;2023-06-10T12:45:00;107.53;;;102.22;;
32934;SDS011;19292;51.532;7.650;2023-06-10T12:47:29;99.47;;;94.43;;
32934;SDS011;19292;51.532;7.650;2023-06-10T12:50:00;83.22;;;79.22;;
32934;SDS011;19292;51.532;7.650;2023-06-10T12:52:25;102.53;;;97.75;;
32934;SDS011;19292;51.532;7.650;2023-06-10T12:54:51;99.07;;;94.40;;
32934;SDS011;19292;51.532;7.650;2023-06-10T12:57:17;77.25;;;73.43;;
32934;SDS011;19292;51.532;7.650;2023-06-10T12:59:42;63.83;;;60.65;;
32934;SDS011;19292;51.532;7.650;2023-06-10T13:02:15;56.90;;;54.05;;
32934;SDS011;19292;51.532;7.650;2023-06-10T13:04:40;76.72;;;73.10;;
32934;SDS011;19292;51.532;7.650;2023-06-10T13:07:06;88.00;;;83.88;;
32934;SDS011;19292;51.532;7.650;2023-06-10T13:09:32;93.20;;;88.55;;
32934;SDS011;19292;51.532;7.650;2023-06-10T13:11:58;83.07;;;79.07;;
32934;SDS011;19292;51.532;7.650;2023-06-10T13:14:24;94.57;;;89.82;;
32934;SDS011;19292;51.532;7.650;2023-06-10T13:16:50;75.47;;;71.90;;
32934;SDS011;19292;51.532;7.650;2023-06-10T13:19:15;98.10;;;93.53;;
32934;SDS011;19292;51.532;7.650;2023-06-10T13:21:41;92.13;;;87.53;;
32934;SDS011;19292;51.532;7.650;2023-06-10T13:24:06;94.55;;;89.72;;
32934;SDS011;19292;51.532;7.650;2023-06-10T13:26:32;83.57;;;79.28;;
32934;SDS011;19292;51.532;7.650;2023-06-10T13:28:57;59.78;;;56.70;;
32934;SDS011;19292;51.532;7.650;2023-06-10T13:31:22;81.82;;;77.93;;
32934;SDS011;19292;51.532;7.650;2023-06-10T13:33:48;59.03;;;56.10;;
32934;SDS011;19292;51.532;7.650;2023-06-10T13:36:13;83.13;;;79.18;;
32934;SDS011;19292;51.532;7.650;2023-06-10T13:38:39;60.00;;;57.05;;
32934;SDS011;19292;51.532;7.650;2023-06-10T13:41:04;78.13;;;74.25;;
32934;SDS011;19292;51.532;7.650;2023-06-10T13:43:29;96.00;;;91.38;;
32934;SDS011;19292;51.532;7.650;2023-06-10T13:45:55;86.63;;;82.43;;
32934;SDS011;19292;51.532;7.650;2023-06-10T13:48:20;25.95;;;24.63;;
32934;SDS011;19292;51.532;7.650;2023-06-10T13:50:46;54.85;;;51.90;;
32934;SDS011;19292;51.532;7.650;2023-06-10T13:53:12;27.38;;;26.05;;
32934;SDS011;19292;51.532;7.650;2023-06-10T13:55:37;50.63;;;48.15;;
32934;SDS011;19292;51.532;7.650;2023-06-10T13:58:02;31.50;;;29.90;;
32934;SDS011;19292;51.532;7.650;2023-06-10T14:00:28;22.70;;;21.58;;
32934;SDS011;19292;51.532;7.650;2023-06-10T14:02:53;31.45;;;29.85;;
32934;SDS011;19292;51.532;7.650;2023-06-10T14:05:19;27.80;;;26.45;;
32934;SDS011;19292;51.532;7.650;2023-06-10T14:07:44;23.13;;;22.00;;
32934;SDS011;19292;51.532;7.650;2023-06-10T14:10:10;50.58;;;48.13;;
32934;SDS011;19292;51.532;7.650;2023-06-10T14:12:36;20.83;;;19.42;;
32934;SDS011;19292;51.532;7.650;2023-06-10T14:15:01;19.13;;;18.13;;
32934;SDS011;19292;51.532;7.650;2023-06-10T14:17:27;23.00;;;21.88;;
32934;SDS011;19292;51.532;7.650;2023-06-10T14:19:53;22.08;;;20.98;;
32934;SDS011;19292;51.532;7.650;2023-06-10T14:22:18;37.08;;;35.38;;
32934;SDS011;19292;51.532;7.650;2023-06-10T14:24:43;27.15;;;25.75;;
32934;SDS011;19292;51.532;7.650;2023-06-10T14:27:09;23.25;;;22.15;;
32934;SDS011;19292;51.532;7.650;2023-06-10T14:29:34;23.52;;;22.38;;
32934;SDS011;19292;51.532;7.650;2023-06-10T14:32:00;26.10;;;24.85;;
32934;SDS011;19292;51.532;7.650;2023-06-10T14:34:25;20.65;;;19.67;;
32934;SDS011;19292;51.532;7.650;2023-06-10T14:36:55;22.13;;;21.02;;
32934;SDS011;19292;51.532;7.650;2023-06-10T14:39:20;29.08;;;27.67;;
32934;SDS011;19292;51.532;7.650;2023-06-10T14:41:46;48.03;;;45.65;;
32934;SDS011;19292;51.532;7.650;2023-06-10T14:44:11;28.77;;;27.30;;
32934;SDS011;19292;51.532;7.650;2023-06-10T14:46:36;25.77;;;24.52;;
32934;SDS011;19292;51.532;7.650;2023-06-10T14:49:02;28.02;;;26.70;;
32934;SDS011;19292;51.532;7.650;2023-06-10T14:51:27;22.45;;;21.30;;
32934;SDS011;19292;51.532;7.650;2023-06-10T14:53:53;27.33;;;26.02;;
32934;SDS011;19292;51.532;7.650;2023-06-10T14:56:18;39.28;;;37.30;;
32934;SDS011;19292;51.532;7.650;2023-06-10T14:58:43;31.38;;;29.88;;